createdAt,value
2023-05-07T00:02:42.767Z,97893.44
2023-05-07T00:07:45.524Z,97886.81
2023-05-07T00:12:48.032Z,97885.84
2023-05-07T00:17:50.200Z,97886.09
2023-05-07T00:22:52.483Z,97889.75
2023-05-07T00:27:54.620Z,97883.63
2023-05-07T00:32:56.938Z,97878.75
2023-05-07T00:37:59.429Z,97874.50
2023-05-07T00:43:01.578Z,97866.53
2023-05-07T00:48:04.757Z,97865.81
2023-05-07T00:53:08.581Z,97864.63
2023-05-07T00:58:11.129Z,97863.47
2023-05-07T01:03:13.390Z,97857.72
2023-05-07T01:08:17.853Z,97856.69
2023-05-07T01:13:21.761Z,97861.59
2023-05-07T01:18:24.528Z,97861.41
2023-05-07T01:23:28.932Z,97856.81
2023-05-07T01:28:31.280Z,97853.19
2023-05-07T01:33:39.496Z,97860.00
2023-05-07T01:38:43.641Z,97855.50
2023-05-07T01:43:48.283Z,97854.78
2023-05-07T01:48:52.000Z,97857.13
2023-05-07T01:53:54.898Z,97852.44
2023-05-07T01:58:57.140Z,97848.03
2023-05-07T02:03:59.483Z,97852.03
2023-05-07T02:09:04.604Z,97854.50
2023-05-07T02:14:07.167Z,97862.72
2023-05-07T02:19:09.482Z,97854.69
2023-05-07T02:24:12.108Z,97862.38
2023-05-07T02:29:14.603Z,97865.34
2023-05-07T02:34:18.329Z,97848.09
2023-05-07T02:39:20.823Z,97857.28
2023-05-07T02:44:22.922Z,97859.38
2023-05-07T02:49:26.993Z,97849.56
2023-05-07T02:54:29.580Z,97852.63
2023-05-07T02:59:32.165Z,97857.94
2023-05-07T03:04:34.563Z,97848.66
2023-05-07T03:09:36.948Z,97833.56
2023-05-07T03:14:39.428Z,97824.25
2023-05-07T03:19:41.582Z,97825.38
2023-05-07T03:24:43.743Z,97828.44
2023-05-07T03:29:46.112Z,97831.44
2023-05-07T03:34:48.504Z,97833.72
2023-05-07T03:39:51.016Z,97839.38
2023-05-07T03:44:54.195Z,97840.47
2023-05-07T03:49:57.185Z,97842.72
2023-05-07T03:55:00.780Z,97839.78
2023-05-07T04:00:05.624Z,97843.56
2023-05-07T04:05:11.689Z,97843.34
2023-05-07T04:10:16.272Z,97851.28
2023-05-07T04:15:21.043Z,97859.22
2023-05-07T04:20:23.235Z,97849.16
2023-05-07T04:25:32.117Z,97854.47
2023-05-07T04:30:43.288Z,97867.56
2023-05-07T04:35:47.387Z,97869.22
2023-05-07T04:40:50.755Z,97864.84
2023-05-07T04:45:57.103Z,97869.88
2023-05-07T04:51:01.972Z,97871.19
2023-05-07T04:56:04.521Z,97874.22
2023-05-07T05:01:13.823Z,97868.28
2023-05-07T05:06:17.167Z,97889.03
2023-05-07T05:11:19.338Z,97896.66
2023-05-07T05:16:21.831Z,97891.78
2023-05-07T05:21:24.761Z,97890.09
2023-05-07T05:26:31.127Z,97894.53
2023-05-07T05:31:34.902Z,97912.09
2023-05-07T05:36:37.489Z,97903.72
2023-05-07T05:41:40.191Z,97898.22
2023-05-07T05:46:44.185Z,97891.13
2023-05-07T05:51:47.222Z,97896.19
2023-05-07T05:56:50.658Z,97901.31
2023-05-07T06:01:52.982Z,97906.00
2023-05-07T06:06:55.647Z,97908.34
2023-05-07T06:12:00.680Z,97917.97
2023-05-07T06:17:06.491Z,97913.81
2023-05-07T06:22:08.839Z,97909.53
2023-05-07T06:27:11.734Z,97906.50
2023-05-07T06:32:15.387Z,97916.84
2023-05-07T06:37:19.703Z,97921.22
2023-05-07T06:42:30.935Z,97921.38
2023-05-07T06:47:36.344Z,97922.78
2023-05-07T06:52:38.662Z,97917.72
2023-05-07T06:57:42.124Z,97926.53
2023-05-07T07:02:44.873Z,97922.47
2023-05-07T07:07:53.893Z,97923.22
2023-05-07T07:12:57.090Z,97921.72
2023-05-07T07:17:59.448Z,97919.00
2023-05-07T07:23:01.878Z,97917.22
2023-05-07T07:28:04.200Z,97912.75
2023-05-07T07:33:06.962Z,97912.94
2023-05-07T07:38:12.140Z,97903.81
2023-05-07T07:49:43.620Z,97917.72
2023-05-07T07:54:47.146Z,97912.66
2023-05-07T07:59:51.280Z,97912.50
2023-05-07T08:04:55.112Z,97910.78
2023-05-07T08:09:57.546Z,97909.50
2023-05-07T08:15:01.058Z,97913.56
2023-05-07T08:20:03.584Z,97915.84
2023-05-07T08:25:06.627Z,97917.28
2023-05-07T08:30:10.427Z,97909.66
2023-05-07T08:35:13.275Z,97915.59
2023-05-07T08:40:16.385Z,97901.13
2023-05-07T08:45:22.101Z,97918.41
2023-05-07T08:50:27.213Z,97920.03
2023-05-07T08:55:31.311Z,97921.78
2023-05-07T09:00:34.744Z,97924.06
2023-05-07T09:05:37.711Z,97922.94
2023-05-07T09:10:43.235Z,97909.75
2023-05-07T09:15:46.287Z,97910.13
2023-05-07T09:20:49.078Z,97900.72
2023-05-07T09:26:02.732Z,97896.13
2023-05-07T09:31:09.760Z,97893.44
2023-05-07T09:36:12.355Z,97889.13
2023-05-07T09:41:17.166Z,97887.66
2023-05-07T09:46:33.603Z,97887.66
2023-05-07T09:51:50.516Z,97892.66
2023-05-07T09:56:54.815Z,97890.78
2023-05-07T10:02:04.811Z,97887.16
2023-05-07T10:07:10.992Z,97884.47
2023-05-07T10:12:13.980Z,97879.66
2023-05-07T10:17:18.985Z,97865.28
2023-05-07T10:22:23.604Z,97869.56
2023-05-07T10:27:27.157Z,97856.34
2023-05-07T10:32:56.435Z,97849.66
2023-05-07T10:38:06.117Z,97855.72
2023-05-07T10:43:12.502Z,97839.25
2023-05-07T10:53:30.762Z,97839.81
2023-05-07T10:58:51.990Z,97834.69
2023-05-07T11:04:17.097Z,97832.38
2023-05-07T11:10:02.256Z,97835.63
2023-05-07T11:15:56.532Z,97829.94
2023-05-07T11:21:07.547Z,97822.66
2023-05-07T11:26:18.880Z,97821.00
2023-05-07T11:31:25.087Z,97817.00
2023-05-07T11:36:33.505Z,97818.75
2023-05-07T11:41:38.606Z,97821.03
2023-05-07T11:46:46.164Z,97814.53
2023-05-07T11:51:48.960Z,97808.88
2023-05-07T11:56:51.164Z,97824.66
2023-05-07T12:01:53.388Z,97848.59
2023-05-07T12:06:56.959Z,97853.88
2023-05-07T12:12:07.115Z,97876.94
2023-05-07T12:17:11.102Z,97881.25
2023-05-07T12:22:14.607Z,97880.16
2023-05-07T12:27:18.579Z,97886.16
2023-05-07T12:32:23.294Z,97905.59
2023-05-07T12:37:28.603Z,97939.28
2023-05-07T12:42:37.814Z,97950.88
2023-05-07T12:47:40.518Z,97970.34
2023-05-07T12:52:48.178Z,97949.09
2023-05-07T12:57:54.233Z,97942.53
2023-05-07T13:02:56.582Z,97942.34
2023-05-07T13:07:58.959Z,97952.59
2023-05-07T13:13:01.244Z,97965.88
2023-05-07T13:18:03.801Z,97977.69
2023-05-07T13:23:06.102Z,97991.13
2023-05-07T13:28:11.334Z,97990.50
2023-05-07T13:33:14.551Z,97990.19
2023-05-07T13:38:17.416Z,97976.97
2023-05-07T13:43:20.247Z,97975.44
2023-05-07T13:48:22.519Z,97949.00
2023-05-07T13:53:24.780Z,97941.72
2023-05-07T13:58:27.137Z,97921.19
2023-05-07T14:03:29.359Z,97952.91
2023-05-07T14:08:32.067Z,97955.94
2023-05-07T14:13:35.517Z,97957.81
2023-05-07T14:18:39.785Z,97965.38
2023-05-07T14:23:42.096Z,97971.06
2023-05-07T14:28:47.574Z,97968.63
2023-05-07T14:33:51.664Z,97964.34
2023-05-07T14:39:00.279Z,97958.59
2023-05-07T14:44:05.071Z,97945.75
2023-05-07T14:49:07.943Z,97943.94
2023-05-07T14:54:10.322Z,97935.41
2023-05-07T14:59:12.951Z,97922.88
2023-05-07T15:04:16.073Z,97924.63
2023-05-07T15:09:19.261Z,97921.78
2023-05-07T15:14:23.191Z,97926.69
2023-05-07T15:19:30.075Z,97939.97
2023-05-07T15:24:32.669Z,97951.00
2023-05-07T15:29:35.011Z,97949.47
2023-05-07T15:34:38.324Z,97956.06
2023-05-07T15:39:40.784Z,97959.22
2023-05-07T15:44:43.291Z,97956.28
2023-05-07T15:49:45.478Z,97957.66
2023-05-07T15:54:48.601Z,97960.25
2023-05-07T15:59:51.353Z,97969.47
2023-05-07T16:04:53.792Z,97978.94
2023-05-07T16:09:55.948Z,97993.78
2023-05-07T16:14:58.170Z,98009.25
2023-05-07T16:20:00.536Z,98013.88
2023-05-07T16:25:02.828Z,98021.91
2023-05-07T16:30:05.759Z,98035.59
2023-05-07T16:35:08.669Z,98037.09
2023-05-07T16:40:11.606Z,98031.63
2023-05-07T16:45:13.890Z,98032.81
2023-05-07T16:50:16.407Z,98028.00
2023-05-07T16:55:18.947Z,98029.78
2023-05-07T17:00:21.187Z,98035.16
2023-05-07T17:05:24.469Z,98035.28
2023-05-07T17:10:27.050Z,98039.03
2023-05-07T17:15:29.197Z,98051.91
2023-05-07T17:20:31.488Z,98045.34
2023-05-07T17:25:37.228Z,98050.41
2023-05-07T17:30:39.304Z,98045.06
2023-05-07T17:35:41.425Z,98055.34
2023-05-07T17:40:43.634Z,98050.69
2023-05-07T17:45:46.109Z,98067.06
2023-05-07T17:50:48.554Z,98072.63
2023-05-07T17:55:50.837Z,98064.06
2023-05-07T18:00:55.605Z,98067.53
2023-05-07T18:05:57.881Z,98066.06
2023-05-07T18:11:00.217Z,98076.63
2023-05-07T18:16:02.578Z,98088.94
2023-05-07T18:21:05.555Z,98093.38
2023-05-07T18:26:08.581Z,98105.44
2023-05-07T18:31:11.137Z,98120.28
2023-05-07T18:36:13.396Z,98131.03
2023-05-07T18:41:15.522Z,98136.44
2023-05-07T18:46:18.140Z,98135.25
2023-05-07T18:51:20.652Z,98121.53
2023-05-07T18:56:23.162Z,98129.22
2023-05-07T19:01:25.493Z,98138.00
2023-05-07T19:06:29.429Z,98131.06
2023-05-07T19:11:33.448Z,98149.06
2023-05-07T19:16:35.785Z,98149.47
2023-05-07T19:21:38.173Z,98152.91
2023-05-07T19:26:41.305Z,98166.78
2023-05-07T19:31:43.460Z,98173.25
2023-05-07T19:36:45.825Z,98180.06
2023-05-07T19:41:48.502Z,98197.94
2023-05-07T19:46:51.318Z,98194.88
2023-05-07T19:51:53.917Z,98206.91
2023-05-07T19:56:59.814Z,98206.59
2023-05-07T20:02:02.032Z,98210.84
2023-05-07T20:07:06.001Z,98212.41
2023-05-07T20:12:08.472Z,98224.56
2023-05-07T20:17:10.735Z,98228.88
2023-05-07T20:22:13.121Z,98228.22
2023-05-07T20:27:16.356Z,98227.56
2023-05-07T20:32:18.951Z,98218.06
2023-05-07T20:37:21.496Z,98233.50
2023-05-07T20:42:25.302Z,98228.91
2023-05-07T20:47:28.050Z,98228.72
2023-05-07T20:52:30.217Z,98236.53
2023-05-07T20:57:32.407Z,98248.13
2023-05-07T21:02:34.590Z,98248.06
2023-05-07T21:07:37.273Z,98243.88
2023-05-07T21:12:40.056Z,98253.06
2023-05-07T21:17:42.295Z,98254.41
2023-05-07T21:22:44.402Z,98252.38
2023-05-07T21:27:46.985Z,98253.38
2023-05-07T21:32:49.807Z,98251.69
2023-05-07T21:37:52.024Z,98261.34
2023-05-07T21:42:54.608Z,98260.09
2023-05-07T21:47:57.117Z,98257.66
2023-05-07T21:52:59.222Z,98256.75
2023-05-07T21:58:05.501Z,98255.38
2023-05-07T22:03:08.435Z,98256.09
2023-05-07T22:08:10.581Z,98257.09
2023-05-07T22:13:12.840Z,98254.41
2023-05-07T22:18:15.165Z,98254.28
2023-05-07T22:23:17.674Z,98255.81
2023-05-07T22:28:20.106Z,98257.63
2023-05-07T22:33:22.356Z,98252.41
2023-05-07T22:38:24.688Z,98258.59
2023-05-07T22:43:26.815Z,98255.09
2023-05-07T22:48:29.845Z,98261.75
2023-05-07T22:53:32.009Z,98253.16
2023-05-07T22:58:34.494Z,98248.31
2023-05-07T23:03:36.920Z,98251.13
2023-05-07T23:08:39.306Z,98258.97
2023-05-07T23:13:41.677Z,98257.34
2023-05-07T23:18:43.824Z,98258.16
2023-05-07T23:23:47.980Z,98248.13
2023-05-07T23:28:50.424Z,98249.84
2023-05-07T23:33:52.501Z,98250.75
2023-05-07T23:38:54.602Z,98254.28
2023-05-07T23:43:56.740Z,98246.50
2023-05-07T23:48:58.836Z,98243.03
2023-05-07T23:54:01.167Z,98246.72
2023-05-07T23:59:03.498Z,98239.22
